createdAt,value
2018-07-07T00:00:07.008Z,53.74
2018-07-07T00:01:16.821Z,53.55
2018-07-07T00:02:26.935Z,53.83
2018-07-07T00:03:36.739Z,53.74
2018-07-07T00:04:46.822Z,53.55
2018-07-07T00:05:56.898Z,54.12
2018-07-07T00:07:06.965Z,54.32
2018-07-07T00:08:16.547Z,54.41
2018-07-07T00:09:26.597Z,54.5
2018-07-07T00:10:36.666Z,54.12
2018-07-07T00:11:46.480Z,54.41
2018-07-07T00:12:56.291Z,54.22
2018-07-07T00:14:06.441Z,53.83
2018-07-07T00:15:16.255Z,53.64
2018-07-07T00:16:26.328Z,53.55
2018-07-07T00:17:36.114Z,53.36
2018-07-07T00:18:46.233Z,53.26
2018-07-07T00:19:56.352Z,53.55
2018-07-07T00:21:06.145Z,53.96
2018-07-07T00:22:15.682Z,53.58
2018-07-07T00:23:25.740Z,53.86
2018-07-07T00:24:35.255Z,54.15
2018-07-07T00:25:45.373Z,54.24
2018-07-07T00:26:55.175Z,54.7
2018-07-07T00:28:04.977Z,54.79
2018-07-07T00:29:14.773Z,54.7
2018-07-07T00:30:24.583Z,54.79
2018-07-07T00:31:34.710Z,54.22
2018-07-07T00:32:44.496Z,54.41
2018-07-07T00:33:54.012Z,54.24
2018-07-07T00:35:03.530Z,54.41
2018-07-07T00:36:13.322Z,54.41
2018-07-07T00:37:22.914Z,54.72
2018-07-07T00:38:32.724Z,54.44
2018-07-07T00:39:42.772Z,54.03
2018-07-07T00:40:52.571Z,54.34
2018-07-07T00:42:02.652Z,53.83
2018-07-07T00:43:12.499Z,53.58
2018-07-07T00:44:22.581Z,54.44
2018-07-07T00:45:32.113Z,53.77
2018-07-07T00:46:41.917Z,53.77
2018-07-07T00:47:51.691Z,53.58
2018-07-07T00:49:01.524Z,54.24
2018-07-07T00:50:11.336Z,55.21
2018-07-07T00:51:21.408Z,54.99
2018-07-07T00:52:31.193Z,55.27
2018-07-07T00:53:41.255Z,55.36
2018-07-07T00:54:51.111Z,55.56
2018-07-07T00:56:01.164Z,54.5
2018-07-07T00:57:10.959Z,55.18
2018-07-07T00:58:21.040Z,55.18
2018-07-07T00:59:30.300Z,55.08
2018-07-07T01:00:39.884Z,54.7
2018-07-07T01:01:49.692Z,55.65
2018-07-07T01:02:59.773Z,55.94
2018-07-07T01:04:09.312Z,55.82
2018-07-07T01:05:19.386Z,56.39
2018-07-07T01:06:29.239Z,56.87
2018-07-07T01:07:39.034Z,56.3
2018-07-07T01:08:49.093Z,56.68
2018-07-07T01:09:59.176Z,56.39
2018-07-07T01:11:08.700Z,56.2
2018-07-07T01:12:18.832Z,56.2
2018-07-07T01:13:28.891Z,56.1
2018-07-07T01:14:38.972Z,56.01
2018-07-07T01:15:49.056Z,56.39
2018-07-07T01:16:59.157Z,55.63
2018-07-07T01:18:09.298Z,55.44
2018-07-07T01:19:19.346Z,55.44
2018-07-07T01:20:29.152Z,55.53
2018-07-07T01:21:38.958Z,56.01
2018-07-07T01:22:49.028Z,55.82
2018-07-07T01:23:58.866Z,55.73
2018-07-07T01:25:08.412Z,55.63
2018-07-07T01:26:18.483Z,55.44
2018-07-07T01:27:28.259Z,55.44
2018-07-07T01:28:38.333Z,55.91
2018-07-07T01:29:48.176Z,55.63
2018-07-07T01:30:57.965Z,55.34
2018-07-07T01:32:07.495Z,55.63
2018-07-07T01:33:17.559Z,55.73
2018-07-07T01:34:27.346Z,56.39
2018-07-07T01:35:37.471Z,56.49
2018-07-07T01:36:47.286Z,55.82
2018-07-07T01:37:57.079Z,55.73
2018-07-07T01:39:06.615Z,56.49
2018-07-07T01:40:16.700Z,55.82
2018-07-07T01:41:26.015Z,55.53
2018-07-07T01:42:35.842Z,55.53
2018-07-07T01:43:45.893Z,55.73
2018-07-07T01:44:55.694Z,56.49
2018-07-07T01:46:05.509Z,56.39
2018-07-07T01:47:15.368Z,56.2
2018-07-07T01:48:25.174Z,56.39
2018-07-07T01:49:34.767Z,56.59
2018-07-07T01:50:44.583Z,56.3
2018-07-07T01:51:54.671Z,57.06
2018-07-07T01:53:04.321Z,57.45
2018-07-07T01:54:14.392Z,56.68
2018-07-07T01:55:24.206Z,56.97
2018-07-07T01:56:34.274Z,56.87
2018-07-07T01:57:44.076Z,56.68
2018-07-07T01:58:54.202Z,56.49
2018-07-07T02:00:03.995Z,56.77
2018-07-07T02:01:13.802Z,56.68
2018-07-07T02:02:23.343Z,55.91
2018-07-07T02:03:33.414Z,56.39
2018-07-07T02:04:43.540Z,56.39
2018-07-07T02:05:53.592Z,56.59
2018-07-07T02:07:03.374Z,56.2
2018-07-07T02:08:13.458Z,56.59
2018-07-07T02:09:23.520Z,56.2
2018-07-07T02:10:33.325Z,56.59
2018-07-07T02:11:43.469Z,57.73
2018-07-07T02:12:53.534Z,57.45
2018-07-07T02:14:03.065Z,57.06
2018-07-07T02:15:12.851Z,57.26
2018-07-07T02:16:22.695Z,57.23
2018-07-07T02:17:32.236Z,57.13
2018-07-07T02:18:42.076Z,56.94
2018-07-07T02:19:52.347Z,57.23
2018-07-07T02:21:01.874Z,58.37
2018-07-07T02:22:11.455Z,57.9
2018-07-07T02:23:20.723Z,58.95
2018-07-07T02:24:30.805Z,58.76
2018-07-07T02:25:40.875Z,58.83
2018-07-07T02:26:50.944Z,58.73
2018-07-07T02:28:01.065Z,59.49
2018-07-07T02:29:10.882Z,59.01
2018-07-07T02:30:20.959Z,59.01
2018-07-07T02:31:30.493Z,59.3
2018-07-07T02:32:40.580Z,59.2
2018-07-07T02:33:50.710Z,59.69
2018-07-07T02:35:00.514Z,60.26
2018-07-07T02:36:10.063Z,59.78
2018-07-07T02:37:20.130Z,59.59
2018-07-07T02:38:30.232Z,60.26
2018-07-07T02:39:40.362Z,59.4
2018-07-07T02:40:50.430Z,59.4
2018-07-07T02:42:00.507Z,59.49
2018-07-07T02:43:10.300Z,59.69
2018-07-07T02:44:19.845Z,60.45
2018-07-07T02:45:29.142Z,59.78
2018-07-07T02:46:39.223Z,59.3
2018-07-07T02:47:49.298Z,59.3
2018-07-07T02:48:59.101Z,59.49
2018-07-07T02:50:08.901Z,60.16
2018-07-07T02:51:19.039Z,59.78
2018-07-07T02:52:28.841Z,59.01
2018-07-07T02:53:38.914Z,59.4
2018-07-07T02:54:49.013Z,59.49
2018-07-07T02:55:59.077Z,60.55
2018-07-07T02:57:08.675Z,60.64
2018-07-07T02:58:18.495Z,60.93
2018-07-07T02:59:28.035Z,60.64
2018-07-07T03:04:53.613Z,61.79
2018-07-07T03:06:03.131Z,63.29
2018-07-07T03:07:12.669Z,64.05
2018-07-07T03:08:22.496Z,64.15
2018-07-07T03:09:32.633Z,64.15
2018-07-07T03:10:42.449Z,64.53
2018-07-07T03:11:52.529Z,64.91
2018-07-07T03:13:02.620Z,65.17
2018-07-07T03:14:12.417Z,65.36
2018-07-07T03:15:22.263Z,65.74
2018-07-07T03:16:31.556Z,65.07
2018-07-07T03:17:41.352Z,65.17
2018-07-07T03:18:51.163Z,65.84
2018-07-07T03:20:00.990Z,65.64
2018-07-07T03:21:10.853Z,66.09
2018-07-07T03:22:20.655Z,66.28
2018-07-07T03:23:30.190Z,65.8
2018-07-07T03:24:40.009Z,66.66
2018-07-07T03:25:49.815Z,66.66
2018-07-07T03:26:59.935Z,66.66
2018-07-07T03:28:09.472Z,66.66
2018-07-07T03:29:18.989Z,66.09
2018-07-07T03:30:28.509Z,66.66
2018-07-07T03:31:38.562Z,67.24
2018-07-07T03:32:48.411Z,67.43
2018-07-07T03:33:58.481Z,67.33
2018-07-07T03:35:08.009Z,66.85
2018-07-07T03:36:18.056Z,67.43
2018-07-07T03:37:28.129Z,66.76
2018-07-07T03:38:37.981Z,66.19
2018-07-07T03:39:48.065Z,66.95
2018-07-07T03:40:57.871Z,67.14
2018-07-07T03:42:08.043Z,66.85
2018-07-07T03:43:18.011Z,66.76
2018-07-07T03:44:27.314Z,66.47
2018-07-07T03:45:37.435Z,67.27
2018-07-07T03:46:47.518Z,66.89
2018-07-07T03:47:57.596Z,66.6
2018-07-07T03:49:07.701Z,65.26
2018-07-07T03:50:17.363Z,65.17
2018-07-07T03:51:27.153Z,65.36
2018-07-07T03:52:36.958Z,64.98
2018-07-07T03:53:46.770Z,65.26
2018-07-07T03:54:56.853Z,65.17
2018-07-07T03:56:06.699Z,64.34
2018-07-07T03:57:16.783Z,64.72
2018-07-07T03:58:26.309Z,65.01
2018-07-07T03:59:36.111Z,64.43
2018-07-07T04:00:45.926Z,63.86
2018-07-07T04:01:55.789Z,64.62
2018-07-07T04:03:05.847Z,64.15
2018-07-07T04:04:15.643Z,63.76
2018-07-07T04:05:25.720Z,63.57
2018-07-07T04:06:35.767Z,62.65
2018-07-07T04:07:45.894Z,63.13
2018-07-07T04:08:55.164Z,62.84
2018-07-07T04:10:04.416Z,63.03
2018-07-07T04:11:14.476Z,62.94
2018-07-07T04:12:24.277Z,63.23
2018-07-07T04:13:34.120Z,62.94
2018-07-07T04:14:44.177Z,63.03
2018-07-07T04:15:54.234Z,62.46
2018-07-07T04:17:04.305Z,63.03
2018-07-07T04:18:13.841Z,61.88
2018-07-07T04:19:23.974Z,62.27
2018-07-07T04:20:33.790Z,62.74
2018-07-07T04:21:43.843Z,63.13
2018-07-07T04:22:53.648Z,63.7
2018-07-07T04:24:03.471Z,63.03
2018-07-07T04:25:13.048Z,62.74
2018-07-07T04:26:22.588Z,62.65
2018-07-07T04:27:32.659Z,62.46
2018-07-07T04:28:42.452Z,62.4
2018-07-07T04:29:52.267Z,62.49
2018-07-07T04:31:02.388Z,62.77
2018-07-07T04:32:12.172Z,62.37
2018-07-07T04:33:22.247Z,63.13
2018-07-07T04:34:32.316Z,62.94
2018-07-07T04:35:42.404Z,62.01
2018-07-07T04:36:52.273Z,61.91
2018-07-07T04:38:02.070Z,61.72
2018-07-07T04:39:11.868Z,61.91
2018-07-07T04:40:21.648Z,61.25
2018-07-07T04:41:31.448Z,60.96
2018-07-07T04:42:41.563Z,60.58
2018-07-07T04:43:51.352Z,60.38
2018-07-07T04:45:01.158Z,60.67
2018-07-07T04:46:10.690Z,60.96
2018-07-07T04:47:20.501Z,60.7
2018-07-07T04:48:30.090Z,60.8
2018-07-07T04:49:40.155Z,60.67
2018-07-07T04:50:50.222Z,61.34
2018-07-07T04:52:00.287Z,61.37
2018-07-07T04:53:10.374Z,60.86
2018-07-07T04:54:20.221Z,60.8
2018-07-07T04:55:29.209Z,59.84
2018-07-07T04:56:39.028Z,60.22
2018-07-07T04:57:48.824Z,60.13
2018-07-07T04:58:58.897Z,60.61
2018-07-07T05:00:09.038Z,59.75
2018-07-07T05:01:18.573Z,61.91
2018-07-07T05:02:28.383Z,60.67
2018-07-07T05:03:37.902Z,60.8
2018-07-07T05:04:47.977Z,60.67
2018-07-07T05:05:57.812Z,59.75
2018-07-07T05:07:07.610Z,60.8
2018-07-07T05:08:17.702Z,60.61
2018-07-07T05:09:27.498Z,60.8
2018-07-07T05:10:37.559Z,60.41
2018-07-07T05:11:47.677Z,59.17
2018-07-07T05:12:57.757Z,59.27
2018-07-07T05:14:07.825Z,58.31
2018-07-07T05:15:17.918Z,58.69
2018-07-07T05:16:27.508Z,58.22
2018-07-07T05:17:37.640Z,58.02
2018-07-07T05:18:47.456Z,58.22
2018-07-07T05:19:57.540Z,58.31
2018-07-07T05:21:07.062Z,58.88
2018-07-07T05:22:16.863Z,58.15
2018-07-07T05:23:26.712Z,57.64
2018-07-07T05:24:36.777Z,57.73
2018-07-07T05:25:46.848Z,58.02
2018-07-07T05:26:56.915Z,57.76
2018-07-07T05:28:06.987Z,57.86
2018-07-07T05:29:16.824Z,57.95
2018-07-07T05:30:26.636Z,57.86
2018-07-07T05:31:36.701Z,57.57
2018-07-07T05:32:46.567Z,59.01
2018-07-07T05:33:56.379Z,57.95
2018-07-07T05:35:06.210Z,58.72
2018-07-07T05:36:16.285Z,59.58
2018-07-07T05:37:26.093Z,58.44
2018-07-07T05:38:35.902Z,58.24
2018-07-07T05:39:45.440Z,58.05
2018-07-07T05:40:55.550Z,58.72
2018-07-07T05:42:05.367Z,58.24
2018-07-07T05:43:15.437Z,58.72
2018-07-07T05:44:25.524Z,58.05
2018-07-07T05:45:35.312Z,57.67
2018-07-07T05:46:45.430Z,57.76
2018-07-07T05:47:55.230Z,57.95
2018-07-07T05:49:05.020Z,58.62
2018-07-07T05:50:15.088Z,59.01
2018-07-07T05:51:24.343Z,58.05
2018-07-07T05:52:34.470Z,57.95
2018-07-07T05:53:44.539Z,57.83
2018-07-07T05:54:54.340Z,58.15
2018-07-07T05:56:04.418Z,58.34
2018-07-07T05:57:14.222Z,57.95
2018-07-07T05:58:24.140Z,58.91
2018-07-07T05:59:33.927Z,58.62
2018-07-07T06:00:43.466Z,58.62
2018-07-07T06:01:53.544Z,58.15
2018-07-07T06:03:03.613Z,58.34
2018-07-07T06:04:13.481Z,58.05
2018-07-07T06:05:23.560Z,58.05
2018-07-07T06:06:33.615Z,58.05
2018-07-07T06:07:43.694Z,57.76
2018-07-07T06:08:53.777Z,58.05
2018-07-07T06:10:03.679Z,57.86
2018-07-07T06:11:13.755Z,57.67
2018-07-07T06:12:23.304Z,57.38
2018-07-07T06:13:32.831Z,57.67
2018-07-07T06:14:42.356Z,57.57
2018-07-07T06:15:52.523Z,57.57
2018-07-07T06:17:02.595Z,58.05
2018-07-07T06:18:12.178Z,57.86
2018-07-07T06:19:22.057Z,57.86
2018-07-07T06:20:31.863Z,58.05
2018-07-07T06:21:41.727Z,56.99
2018-07-07T06:22:51.807Z,56.61
2018-07-07T06:24:01.870Z,56.61
2018-07-07T06:25:11.432Z,56.52
2018-07-07T06:26:21.592Z,56.42
2018-07-07T06:27:31.599Z,56.64
2018-07-07T06:28:41.671Z,56.45
2018-07-07T06:29:51.734Z,56.45
2018-07-07T06:31:01.809Z,57.41
2018-07-07T06:32:11.330Z,56.45
2018-07-07T06:33:21.162Z,56.83
2018-07-07T06:34:30.697Z,57.21
2018-07-07T06:35:40.507Z,57.48
2018-07-07T06:37:00.579Z,56.42
2018-07-07T06:38:13.763Z,55.87
2018-07-07T06:39:23.615Z,55.68
2018-07-07T06:40:33.619Z,55.97
2018-07-07T06:41:43.673Z,55.58
2018-07-07T06:42:53.478Z,55.78
2018-07-07T06:44:03.618Z,56.45
2018-07-07T06:45:13.429Z,56.54
2018-07-07T06:46:23.485Z,56.74
2018-07-07T06:47:33.549Z,55.49
2018-07-07T06:48:43.344Z,55.58
2018-07-07T06:49:53.460Z,55.97
2018-07-07T06:51:03.530Z,54.75
2018-07-07T06:52:13.312Z,55.42
2018-07-07T06:53:22.844Z,54.63
2018-07-07T06:54:32.910Z,54.75
2018-07-07T06:55:42.500Z,56.57
2018-07-07T06:56:52.302Z,55.52
2018-07-07T06:58:02.366Z,54.94
2018-07-07T06:59:12.170Z,54.46
2018-07-07T07:00:22.244Z,54.66
2018-07-07T07:01:32.099Z,55.13
2018-07-07T07:02:41.914Z,54.37
2018-07-07T07:03:51.455Z,53.63
2018-07-07T07:05:01.538Z,53.79
2018-07-07T07:06:11.335Z,53.53
2018-07-07T07:07:21.177Z,53.72
2018-07-07T07:08:30.711Z,53.82
2018-07-07T07:09:40.238Z,54.58
2018-07-07T07:10:49.507Z,54.3
2018-07-07T07:11:59.676Z,54.58
2018-07-07T07:13:09.981Z,53.44
2018-07-07T07:14:19.805Z,52.57
2018-07-07T07:15:29.337Z,53.53
2018-07-07T07:16:39.140Z,53.63
2018-07-07T07:17:49.017Z,53.72
2018-07-07T07:18:59.143Z,53.15
2018-07-07T07:20:08.137Z,52.57
2018-07-07T07:21:18.195Z,53.36
2018-07-07T07:22:27.992Z,52.6
2018-07-07T07:23:38.057Z,52.02
2018-07-07T07:24:48.200Z,52.31
2018-07-07T07:25:58.134Z,52.5
2018-07-07T07:27:08.604Z,51.83
2018-07-07T07:28:18.146Z,51.93
2018-07-07T07:29:27.961Z,52.02
2018-07-07T07:30:38.092Z,51.73
2018-07-07T07:31:48.171Z,52.12
2018-07-07T07:32:58.043Z,52.12
2018-07-07T07:34:07.713Z,52.22
2018-07-07T07:35:17.783Z,51.83
2018-07-07T07:36:27.949Z,51.54
2018-07-07T07:37:38.029Z,51.93
2018-07-07T07:38:48.128Z,52.12
2018-07-07T07:39:57.649Z,51.95
2018-07-07T07:41:07.454Z,51.57
2018-07-07T07:42:17.297Z,52.34
2018-07-07T07:43:26.817Z,51.95
2018-07-07T07:44:36.914Z,52.62
2018-07-07T07:45:46.700Z,52.6
2018-07-07T07:46:56.496Z,52.22
2018-07-07T07:48:05.802Z,51.93
2018-07-07T07:49:15.591Z,51.25
2018-07-07T07:50:25.402Z,51.18
2018-07-07T07:51:35.493Z,50.61
2018-07-07T07:52:45.660Z,50.7
2018-07-07T07:53:55.629Z,50.03
2018-07-07T07:55:05.710Z,50.51
2018-07-07T07:56:15.781Z,50.03
2018-07-07T07:57:25.587Z,50.51
2018-07-07T07:58:35.396Z,50.13
2018-07-07T07:59:45.526Z,49.93
2018-07-07T08:00:55.042Z,50.7
2018-07-07T08:02:04.866Z,50.99
2018-07-07T08:03:14.949Z,50.61
2018-07-07T08:04:25.028Z,50.32
2018-07-07T08:05:34.884Z,50.42
2018-07-07T08:06:44.674Z,50.03
2018-07-07T08:07:54.748Z,49.65
2018-07-07T08:09:04.887Z,50.23
2018-07-07T08:10:14.973Z,50.13
2018-07-07T08:11:25.110Z,50.8
2018-07-07T08:12:34.700Z,50.32
2018-07-07T08:13:44.760Z,51.18
2018-07-07T08:14:54.549Z,50.03
2018-07-07T08:16:04.383Z,50.8
2018-07-07T08:17:14.232Z,50.13
2018-07-07T08:18:23.769Z,49.46
2018-07-07T08:19:33.571Z,50.23
2018-07-07T08:20:43.638Z,49.36
2018-07-07T08:21:53.719Z,49.65
2018-07-07T08:23:04.078Z,49.36
2018-07-07T08:24:13.634Z,49.55
2018-07-07T08:25:23.697Z,50.03
2018-07-07T08:26:33.495Z,50.03
2018-07-07T08:27:43.581Z,49.17
2018-07-07T08:28:53.685Z,48.49
2018-07-07T08:30:03.469Z,47.25
2018-07-07T08:31:13.541Z,47.82
2018-07-07T08:32:23.329Z,47.82
2018-07-07T08:33:33.399Z,47.92
2018-07-07T08:34:43.534Z,48.04
2018-07-07T08:35:53.686Z,48.13
2018-07-07T08:37:03.484Z,46.69
2018-07-07T08:38:13.535Z,48.04
2018-07-07T08:39:23.587Z,47.36
2018-07-07T08:40:33.727Z,46.5
2018-07-07T08:41:43.594Z,46.5
2018-07-07T08:42:53.220Z,46.12
2018-07-07T08:44:03.305Z,45.73
2018-07-07T08:45:13.111Z,45.35
2018-07-07T08:46:22.966Z,45.45
2018-07-07T08:47:32.762Z,45.25
2018-07-07T08:48:42.306Z,44.96
2018-07-07T08:49:52.396Z,44.68
2018-07-07T08:51:02.198Z,44.38
2018-07-07T08:52:12.045Z,45.18
2018-07-07T08:53:21.855Z,44.2
2018-07-07T08:54:31.653Z,44.31
2018-07-07T08:55:41.463Z,44.77
2018-07-07T08:56:51.549Z,45.08
2018-07-07T08:58:01.116Z,44.29
2018-07-07T08:59:10.936Z,44.31
2018-07-07T09:00:20.459Z,44.1
2018-07-07T09:01:30.245Z,43.64
2018-07-07T09:02:40.315Z,44.6
2018-07-07T09:03:50.428Z,44.7
2018-07-07T09:05:00.495Z,45.08
2018-07-07T09:06:10.016Z,43.54
2018-07-07T09:07:19.818Z,43.45
2018-07-07T09:08:29.603Z,43.35
2018-07-07T09:09:39.183Z,43.35
2018-07-07T09:10:48.979Z,43.45
2018-07-07T09:11:59.070Z,43.66
2018-07-07T09:13:09.137Z,43.47
2018-07-07T09:14:19.326Z,42.6
2018-07-07T09:15:29.419Z,42.41
2018-07-07T09:16:39.225Z,42.22
2018-07-07T09:17:49.033Z,42.32
2018-07-07T09:18:59.097Z,42.22
2018-07-07T09:20:09.169Z,41.35
2018-07-07T09:21:19.199Z,41.26
2018-07-07T09:22:29.443Z,41.45
2018-07-07T09:23:39.508Z,41.26
2018-07-07T09:24:49.581Z,41.35
2018-07-07T09:25:59.682Z,41.64
2018-07-07T09:27:09.280Z,41.26
2018-07-07T09:28:19.096Z,40.78
2018-07-07T09:29:29.162Z,41.74
2018-07-07T09:30:39.233Z,42.53
2018-07-07T09:31:49.315Z,42.72
2018-07-07T09:32:58.894Z,42.33
2018-07-07T09:34:08.980Z,42.33
2018-07-07T09:35:18.802Z,42.33
2018-07-07T09:36:28.884Z,42.63
2018-07-07T09:37:38.679Z,42.14
2018-07-07T09:38:48.608Z,41.28
2018-07-07T09:39:58.899Z,41.11
2018-07-07T09:41:08.425Z,41.01
2018-07-07T09:42:17.992Z,40.43
2018-07-07T09:43:27.792Z,40.63
2018-07-07T09:44:37.903Z,40.81
2018-07-07T09:45:47.981Z,40.72
2018-07-07T09:46:58.067Z,40.53
2018-07-07T09:48:07.893Z,40.72
2018-07-07T09:49:17.969Z,40.64
2018-07-07T09:50:27.824Z,40.07
2018-07-07T09:51:37.895Z,40.26
2018-07-07T09:52:47.706Z,40.64
2018-07-07T09:53:57.508Z,39.59
2018-07-07T09:55:07.305Z,39.49
2018-07-07T09:56:17.515Z,39.2
2018-07-07T09:57:27.867Z,40.74
2018-07-07T09:58:37.682Z,40.55
2018-07-07T09:59:47.226Z,41.89
2018-07-07T10:00:57.288Z,41.32
2018-07-07T10:02:07.156Z,41.22
2018-07-07T10:03:16.976Z,40.64
2018-07-07T10:04:26.502Z,41.41
2018-07-07T10:05:36.322Z,40.64
2018-07-07T10:06:45.870Z,40.45
2018-07-07T10:07:55.981Z,40.74
2018-07-07T10:09:05.509Z,40.55
2018-07-07T10:10:15.055Z,39.97
2018-07-07T10:11:25.122Z,40.74
2018-07-07T10:12:34.922Z,40.64
2018-07-07T10:13:45.068Z,39.87
2018-07-07T10:14:55.148Z,40.43
2018-07-07T10:16:04.689Z,40.81
2018-07-07T10:17:14.211Z,40.72
2018-07-07T10:18:23.758Z,39.95
2018-07-07T10:19:33.348Z,41.11
2018-07-07T10:20:43.531Z,42.16
2018-07-07T10:21:53.466Z,41.2
2018-07-07T10:23:03.286Z,42.26
2018-07-07T10:24:13.100Z,41.3
2018-07-07T10:25:22.420Z,40.63
2018-07-07T10:26:32.281Z,41.22
2018-07-07T10:27:41.539Z,41.03
2018-07-07T10:28:51.346Z,40.74
2018-07-07T10:30:01.170Z,39.99
2018-07-07T10:31:11.041Z,41.22
2018-07-07T10:32:21.096Z,39.99
2018-07-07T10:33:31.182Z,41.71
2018-07-07T10:34:41.258Z,40.55
2018-07-07T10:35:51.048Z,40.74
2018-07-07T10:37:00.629Z,40.43
2018-07-07T10:38:10.587Z,40.99
2018-07-07T10:39:20.878Z,41.76
2018-07-07T10:40:30.931Z,40.61
2018-07-07T10:41:41.012Z,40.7
2018-07-07T10:42:51.133Z,40.7
2018-07-07T10:44:00.937Z,41.86
2018-07-07T10:45:10.195Z,40.89
2018-07-07T10:46:19.986Z,40.61
2018-07-07T10:47:30.029Z,41.78
2018-07-07T10:48:39.974Z,41.49
2018-07-07T10:49:49.797Z,41.01
2018-07-07T10:50:59.604Z,40.63
2018-07-07T10:52:09.415Z,40.53
2018-07-07T10:53:19.238Z,40.63
2018-07-07T10:54:29.086Z,40.72
2018-07-07T10:55:39.318Z,41.49
2018-07-07T10:56:49.396Z,41.39
2018-07-07T10:57:59.181Z,41.03
2018-07-07T10:59:09.273Z,39.78
2018-07-07T11:00:18.849Z,40.81
2018-07-07T11:01:28.654Z,40.84
2018-07-07T11:02:38.584Z,39.87
2018-07-07T11:03:48.673Z,40.94
2018-07-07T11:04:58.497Z,40.91
2018-07-07T11:06:08.634Z,42.74
2018-07-07T11:07:18.446Z,41.49
2018-07-07T11:08:28.248Z,42.36
2018-07-07T11:09:37.785Z,41.51
2018-07-07T11:10:47.859Z,42.07
2018-07-07T11:11:57.657Z,42.28
2018-07-07T11:13:07.662Z,42.38
2018-07-07T11:14:17.750Z,39.99
2018-07-07T11:15:27.835Z,38.74
2018-07-07T11:16:37.912Z,39.31
2018-07-07T11:17:47.783Z,38.74
2018-07-07T11:18:57.569Z,39.51
2018-07-07T11:20:07.513Z,39.31
2018-07-07T11:21:17.346Z,38.26
2018-07-07T11:22:26.871Z,39.51
2018-07-07T11:23:37.072Z,38.93
2018-07-07T11:24:46.620Z,38.18
2018-07-07T11:25:56.472Z,38.66
2018-07-07T11:27:06.292Z,37.89
2018-07-07T11:28:15.559Z,37.6
2018-07-07T11:29:25.415Z,38.46
2018-07-07T11:30:35.497Z,38.37
2018-07-07T11:31:45.617Z,40.09
2018-07-07T11:32:55.705Z,39.89
2018-07-07T11:34:05.523Z,39.62
2018-07-07T11:35:15.379Z,39.14
2018-07-07T11:36:24.945Z,39.64
2018-07-07T11:37:35.565Z,38.58
2018-07-07T11:38:45.376Z,38.39
2018-07-07T11:39:55.441Z,38.87
2018-07-07T11:41:05.568Z,38.29
2018-07-07T11:42:15.735Z,38.31
2018-07-07T11:43:26.146Z,38.29
2018-07-07T11:44:36.225Z,39.04
2018-07-07T11:45:46.021Z,39.31
2018-07-07T11:46:55.882Z,39.14
2018-07-07T11:48:05.695Z,40.66
2018-07-07T11:49:15.777Z,39.72
2018-07-07T11:50:25.807Z,39.62
2018-07-07T11:51:36.156Z,40.01
2018-07-07T11:52:46.021Z,38.58
2018-07-07T11:53:56.101Z,38.39
2018-07-07T11:55:05.912Z,38.51
2018-07-07T11:56:15.995Z,38.51
2018-07-07T11:57:26.072Z,37.83
2018-07-07T11:58:35.947Z,36.98
2018-07-07T11:59:46.020Z,36.71
2018-07-07T12:00:55.826Z,36.32
2018-07-07T12:02:05.756Z,36.63
2018-07-07T12:03:15.844Z,36.16
2018-07-07T12:04:26.109Z,35.78
2018-07-07T12:05:36.216Z,35.2
2018-07-07T12:06:45.746Z,35.6
2018-07-07T12:08:16.514Z,34.63
2018-07-07T12:09:26.450Z,34.34
2018-07-07T12:10:35.443Z,34.63
2018-07-07T12:11:45.258Z,33.86
2018-07-07T12:12:55.344Z,33.49
2018-07-07T12:14:05.427Z,33.59
2018-07-07T12:15:15.311Z,32.82
2018-07-07T12:16:25.108Z,32.52
2018-07-07T12:17:35.006Z,32.15
2018-07-07T12:18:44.837Z,32.07
2018-07-07T12:19:54.667Z,31.1
2018-07-07T12:21:04.264Z,31.6
2018-07-07T12:22:13.806Z,30.65
2018-07-07T12:23:23.619Z,31.92
2018-07-07T12:24:33.703Z,31.44
2018-07-07T12:25:43.791Z,30.48
2018-07-07T12:26:53.366Z,30.77
2018-07-07T12:28:03.510Z,30.57
2018-07-07T12:29:13.582Z,29.6
2018-07-07T12:30:23.396Z,29.79
2018-07-07T12:31:33.532Z,31.78
2018-07-07T12:32:43.396Z,31.99
2018-07-07T12:33:53.487Z,30.74
2018-07-07T12:35:03.572Z,30.94
2018-07-07T12:36:12.834Z,29.79
2018-07-07T12:37:22.638Z,29.41
2018-07-07T12:38:32.760Z,28.54
2018-07-07T12:39:42.827Z,29.12
2018-07-07T12:40:52.813Z,28.07
2018-07-07T12:42:02.792Z,27.79
2018-07-07T12:43:12.331Z,27.51
2018-07-07T12:44:22.464Z,27.14
2018-07-07T12:45:32.028Z,25.9
2018-07-07T12:46:42.122Z,26.39
2018-07-07T12:47:52.202Z,27.08
2018-07-07T12:49:02.032Z,27.54
2018-07-07T12:50:11.367Z,26.29
2018-07-07T12:51:21.201Z,25.63
2018-07-07T12:52:30.482Z,23.8
2018-07-07T12:53:40.583Z,23.33
2018-07-07T12:54:50.656Z,22.85
2018-07-07T12:56:00.525Z,22.19
2018-07-07T12:57:10.333Z,21.31
2018-07-07T12:58:20.428Z,24.46
2018-07-07T12:59:30.256Z,24.24
2018-07-07T13:00:40.344Z,24.73
2018-07-07T13:01:50.207Z,23.29
2018-07-07T13:02:59.757Z,23.12
2018-07-07T13:04:09.313Z,22.45
2018-07-07T13:05:19.403Z,22.08
2018-07-07T13:06:28.950Z,21.01
2018-07-07T13:07:39.079Z,22.46
2018-07-07T13:08:48.915Z,22.83
2018-07-07T13:09:59.000Z,22.35
2018-07-07T13:11:09.096Z,22.45
2018-07-07T13:12:18.929Z,22.19
2018-07-07T13:13:28.793Z,22.02
2018-07-07T13:14:38.875Z,20.96
2018-07-07T13:15:48.682Z,20.19
2018-07-07T13:16:58.764Z,18.44
2018-07-07T13:18:08.325Z,19.02
2018-07-07T13:19:18.451Z,21.49
2018-07-07T13:20:28.011Z,21.13
2018-07-07T13:21:38.108Z,18.7
2018-07-07T13:22:47.924Z,18.91
2018-07-07T13:23:57.465Z,19.41
2018-07-07T13:25:07.341Z,18.73
2018-07-07T13:26:17.544Z,20.54
2018-07-07T13:27:27.469Z,21.01
2018-07-07T13:28:37.293Z,21.14
2018-07-07T13:29:47.113Z,18.89
2018-07-07T13:30:56.716Z,21.31
2018-07-07T13:32:06.534Z,21.39
2018-07-07T13:33:16.827Z,20.61
2018-07-07T13:34:26.911Z,19.85
2018-07-07T13:35:37.012Z,20.4
2018-07-07T13:36:47.143Z,21.46
2018-07-07T13:37:56.957Z,21.47
2018-07-07T13:39:06.781Z,21.39
2018-07-07T13:40:16.332Z,21.36
2018-07-07T13:41:25.895Z,21.25
2018-07-07T13:42:35.772Z,22.9
2018-07-07T13:43:45.872Z,20.68
2018-07-07T13:44:55.957Z,21
2018-07-07T13:46:05.231Z,19.83
2018-07-07T13:47:15.040Z,20.61
2018-07-07T13:48:24.908Z,20.32
2018-07-07T13:49:34.728Z,19.17
2018-07-07T13:50:44.820Z,20.17
2018-07-07T13:51:54.107Z,19.98
2018-07-07T13:53:03.923Z,19.1
2018-07-07T13:54:14.075Z,18.04
2018-07-07T13:55:24.149Z,18.72
2018-07-07T13:56:33.981Z,19.27
2018-07-07T13:57:43.809Z,19.1
2018-07-07T13:58:53.626Z,18.43
2018-07-07T14:00:03.794Z,17.86
2018-07-07T14:01:13.878Z,17
2018-07-07T14:02:23.593Z,17.11
2018-07-07T14:03:33.276Z,16.72
2018-07-07T14:04:43.357Z,16.53
2018-07-07T14:05:53.231Z,16.85
2018-07-07T14:07:03.059Z,15.58
2018-07-07T14:08:12.886Z,15.09
2018-07-07T14:09:23.026Z,15.49
2018-07-07T14:10:33.273Z,15.01
2018-07-07T14:11:43.146Z,14.82
2018-07-07T14:12:52.964Z,14.33
2018-07-07T14:14:03.091Z,13.95
2018-07-07T14:15:13.169Z,13.85
2018-07-07T14:16:22.999Z,13.46
2018-07-07T14:17:33.372Z,13.18
2018-07-07T14:18:43.686Z,11.79
2018-07-07T14:19:53.499Z,12.95
2018-07-07T14:21:03.311Z,14.86
2018-07-07T14:22:12.878Z,14.86
2018-07-07T14:23:22.771Z,15.61
2018-07-07T14:24:33.006Z,16.19
2018-07-07T14:25:42.297Z,16.28
2018-07-07T14:26:52.108Z,15.31
2018-07-07T14:28:02.199Z,16.39
2018-07-07T14:29:11.568Z,16.97
2018-07-07T14:30:21.659Z,18.59
2018-07-07T14:31:31.478Z,18.49
2018-07-07T14:32:41.013Z,17.05
2018-07-07T14:33:51.109Z,18.02
2018-07-07T14:35:01.231Z,17.12
2018-07-07T14:36:11.335Z,19.09
2018-07-07T14:37:21.179Z,18.48
2018-07-07T14:38:31.465Z,18.01
2018-07-07T14:39:41.246Z,17.73
2018-07-07T14:40:51.396Z,17.17
2018-07-07T14:42:01.485Z,16.5
2018-07-07T14:43:11.293Z,16.33
2018-07-07T14:44:21.121Z,14.86
2018-07-07T14:45:31.278Z,14.87
2018-07-07T14:46:41.309Z,14.59
2018-07-07T14:47:51.143Z,14.19
2018-07-07T14:49:01.232Z,15.66
2018-07-07T14:50:11.339Z,14.97
2018-07-07T14:51:21.417Z,14.87
2018-07-07T14:52:31.404Z,15.44
2018-07-07T14:53:41.221Z,15.34
2018-07-07T14:54:51.293Z,15.92
2018-07-07T14:56:01.112Z,17.45
2018-07-07T14:57:10.661Z,18.88
2018-07-07T14:58:20.394Z,17.72
2018-07-07T14:59:30.297Z,17.73
2018-07-07T15:00:39.577Z,17.05
2018-07-07T15:01:49.389Z,17.92
2018-07-07T15:02:59.206Z,17.63
2018-07-07T15:04:09.175Z,18.41
2018-07-07T15:05:18.993Z,17.34
2018-07-07T15:06:29.100Z,17.45